Skip Navigation Linkswww.weather.gov 
NOAA logo - Click to go to the NOAA homepage National Weather Service Forecast Office   NWS logo - Click to go to the NWS homepage    
Pocatello, Idaho
navigation bar decoration      
spacer

Forecast for Pocatello

Printer Friendly Version Printer Friendly Version | Plain Text Version Plain Text Version

Pocatello Terminal Forecast

KPIH 212322Z 2200/2224 28010KT P6SM FEW150
      FM220200 VRB06KT P6SM SKC
      FM221900 25010KT P6SM SCT070=
Recent Pocatello Observations
 KPIH 220053Z 26006KT 10SM CLR 21/M08 A2980 AO2 SLP075  T02061078
 KPIH 212353Z 27008KT 10SM CLR 21/M08 A2982 AO2 SLP073  T02111078 10222 20172 56013
 KPIH 212253Z 27012KT 10SM CLR 22/M06 A2982 AO2 SLP077  T02221061
Adjacent Observations
 KIDA 220053Z 17009KT 10SM FEW080 20/M04 A2981 AO2 SLP076 HZ  ALQDS T02001044

Webmaster
US Dept of Commerce
National Oceanic and Atmospheric Administration
National Weather Service
Pocatello Weather Forecast Office
1945 Beechcraft Ave
Pocatello, ID 83204

Tel: (208) 233-0834
Recorded Forecast: (208) 233-0137

Disclaimer
Information Quality
Credits
Glossary
Organization
Privacy Policy
Freedom of Information Act
About Us
Career Opportunities